createdAt,value
2018-09-12T00:01:40.865Z,6.00
2018-09-12T00:04:08.238Z,5.87
2018-09-12T00:06:35.544Z,6.00
2018-09-12T00:09:02.941Z,5.83
2018-09-12T00:11:30.254Z,6.00
2018-09-12T00:13:57.939Z,6.23
2018-09-12T00:16:25.257Z,6.57
2018-09-12T00:18:52.615Z,6.10
2018-09-12T00:21:19.951Z,5.80
2018-09-12T00:23:47.273Z,6.03
2018-09-12T00:26:14.576Z,6.10
2018-09-12T00:28:41.956Z,5.80
2018-09-12T00:31:09.297Z,5.70
2018-09-12T00:33:36.587Z,5.70
2018-09-12T00:36:03.936Z,6.40
2018-09-12T00:38:31.307Z,5.80
2018-09-12T00:40:58.670Z,5.90
2018-09-12T00:43:25.979Z,6.20
2018-09-12T00:45:53.361Z,5.93
2018-09-12T00:48:20.665Z,5.60
2018-09-12T00:50:48.049Z,5.93
2018-09-12T00:53:15.394Z,5.90
2018-09-12T00:55:42.811Z,6.23
2018-09-12T00:58:10.091Z,6.30
2018-09-12T01:00:37.867Z,5.43
2018-09-12T01:03:05.417Z,6.00
2018-09-12T01:05:32.824Z,5.80
2018-09-12T01:08:00.117Z,6.23
2018-09-12T01:10:27.458Z,5.87
2018-09-12T01:12:54.772Z,6.07
2018-09-12T01:15:22.071Z,6.63
2018-09-12T01:17:49.481Z,5.60
2018-09-12T01:20:16.792Z,6.00
2018-09-12T01:22:44.118Z,5.50
2018-09-12T01:25:11.435Z,6.50
2018-09-12T01:27:38.737Z,6.40
2018-09-12T01:30:08.843Z,6.23
2018-09-12T01:32:36.137Z,5.90
2018-09-12T01:35:03.518Z,6.07
2018-09-12T01:37:30.802Z,6.90
2018-09-12T01:39:58.123Z,6.87
2018-09-12T01:42:25.439Z,6.33
2018-09-12T01:44:52.739Z,5.83
2018-09-12T01:47:20.048Z,6.47
2018-09-12T01:49:47.423Z,6.20
2018-09-12T01:52:14.689Z,6.23
2018-09-12T01:54:41.981Z,5.97
2018-09-12T01:57:09.342Z,5.57
2018-09-12T01:59:37.058Z,6.30
2018-09-12T02:02:04.364Z,6.37
2018-09-12T02:04:31.646Z,6.53
2018-09-12T02:06:58.950Z,6.30
2018-09-12T02:09:26.335Z,6.63
2018-09-12T02:11:53.620Z,6.70
2018-09-12T02:14:20.966Z,7.37
2018-09-12T02:16:48.321Z,6.10
2018-09-12T02:19:15.690Z,6.40
2018-09-12T02:21:42.992Z,5.50
2018-09-12T02:24:10.313Z,6.23
2018-09-12T02:26:37.666Z,6.77
2018-09-12T02:29:04.998Z,5.87
2018-09-12T02:31:32.310Z,5.70
2018-09-12T02:33:59.620Z,6.17
2018-09-12T02:36:28.253Z,7.83
2018-09-12T02:38:56.184Z,6.33
2018-09-12T02:41:23.768Z,6.50
2018-09-12T02:43:51.176Z,6.20
2018-09-12T02:46:18.542Z,6.13
2018-09-12T02:48:45.912Z,6.23
2018-09-12T02:51:13.259Z,6.30
2018-09-12T02:53:40.620Z,6.30
2018-09-12T02:56:07.879Z,6.70
2018-09-12T02:58:35.184Z,6.03
2018-09-12T03:01:02.499Z,5.90
2018-09-12T03:03:29.798Z,6.63
2018-09-12T03:05:57.253Z,5.63
2018-09-12T03:08:24.553Z,6.50
2018-09-12T03:10:51.862Z,6.50
2018-09-12T03:13:19.202Z,6.37
2018-09-12T03:15:46.541Z,5.47
2018-09-12T03:18:14.055Z,6.77
2018-09-12T03:20:41.409Z,6.50
2018-09-12T03:23:08.726Z,6.50
2018-09-12T03:25:36.117Z,6.23
2018-09-12T03:28:03.481Z,7.27
2018-09-12T03:30:30.827Z,6.00
2018-09-12T03:32:58.160Z,6.50
2018-09-12T03:35:25.454Z,5.87
2018-09-12T03:37:52.767Z,7.13
2018-09-12T03:40:20.063Z,6.00
2018-09-12T03:42:47.568Z,6.60
2018-09-12T03:45:15.478Z,6.63
2018-09-12T03:47:42.828Z,6.27
2018-09-12T03:50:10.200Z,6.40
2018-09-12T03:52:37.506Z,7.03
2018-09-12T03:55:04.830Z,6.73
2018-09-12T03:57:32.172Z,6.80
2018-09-12T03:59:59.504Z,6.40
2018-09-12T04:02:26.855Z,6.37
2018-09-12T04:04:55.253Z,7.33
2018-09-12T04:07:22.589Z,6.80
2018-09-12T04:09:49.940Z,6.20
2018-09-12T04:12:17.367Z,7.40
2018-09-12T04:14:44.867Z,6.40
2018-09-12T04:17:12.241Z,7.03
2018-09-12T04:19:39.555Z,6.50
2018-09-12T04:22:06.862Z,6.90
2018-09-12T04:24:34.207Z,6.77
2018-09-12T04:27:01.509Z,6.80
2018-09-12T04:29:29.105Z,6.63
2018-09-12T04:31:56.438Z,7.50
2018-09-12T04:34:23.719Z,7.07
2018-09-12T04:36:51.084Z,6.80
2018-09-12T04:39:18.357Z,7.73
2018-09-12T04:41:45.889Z,7.13
2018-09-12T04:44:13.227Z,7.20
2018-09-12T04:46:43.364Z,6.00
2018-09-12T04:49:10.765Z,7.43
2018-09-12T04:51:38.092Z,6.80
2018-09-12T04:54:05.474Z,6.83
2018-09-12T04:56:32.830Z,6.73
2018-09-12T04:59:00.198Z,7.00
2018-09-12T05:01:28.377Z,6.77
2018-09-12T05:03:55.807Z,6.60
2018-09-12T05:06:27.986Z,6.50
2018-09-12T05:08:55.823Z,6.40
2018-09-12T05:11:23.541Z,6.20
2018-09-12T05:13:51.131Z,6.93
2018-09-12T05:16:18.484Z,6.00
2018-09-12T05:18:45.859Z,6.83
2018-09-12T05:21:13.394Z,6.80
2018-09-12T05:23:40.722Z,6.73
2018-09-12T05:26:08.089Z,6.50
2018-09-12T05:28:35.481Z,6.97
2018-09-12T05:31:02.793Z,6.13
2018-09-12T05:33:30.121Z,7.40
2018-09-12T05:35:57.461Z,6.67
2018-09-12T05:38:25.018Z,6.50
2018-09-12T05:40:52.366Z,7.40
2018-09-12T05:43:19.754Z,6.83
2018-09-12T05:45:48.365Z,7.50
2018-09-12T05:48:16.235Z,6.63
2018-09-12T05:50:51.884Z,8.27
2018-09-12T05:53:20.002Z,7.30
2018-09-12T05:55:49.481Z,8.30
2018-09-12T05:58:16.853Z,7.57
2018-09-12T06:00:44.340Z,7.60
2018-09-12T06:03:11.677Z,7.20
2018-09-12T06:05:39.040Z,7.00
2018-09-12T06:08:09.141Z,7.60
2018-09-12T06:10:43.579Z,7.20
2018-09-12T06:13:10.970Z,6.07
2018-09-12T06:15:38.619Z,6.53
2018-09-12T06:18:18.737Z,6.97
2018-09-12T06:23:32.064Z,7.00
2018-09-12T06:25:59.406Z,7.23
2018-09-12T06:28:26.798Z,5.97
2018-09-12T06:30:54.158Z,5.70
2018-09-12T06:33:21.469Z,6.50
2018-09-12T06:35:48.861Z,6.33
2018-09-12T06:38:16.202Z,5.60
2018-09-12T06:40:43.530Z,6.10
2018-09-12T06:43:10.989Z,6.13
2018-09-12T06:45:41.725Z,7.27
2018-09-12T06:48:09.616Z,6.50
2018-09-12T06:50:37.902Z,6.07
2018-09-12T06:53:05.423Z,6.30
2018-09-12T06:55:34.525Z,7.53
2018-09-12T06:58:01.851Z,6.17
2018-09-12T07:00:29.480Z,5.90
2018-09-12T07:02:56.819Z,7.37
2018-09-12T07:05:27.593Z,7.50
2018-09-12T07:07:55.167Z,5.90
2018-09-12T07:10:22.470Z,6.37
2018-09-12T07:12:49.932Z,5.80
2018-09-12T07:15:17.375Z,5.60
2018-09-12T07:17:44.868Z,5.20
2018-09-12T07:20:16.369Z,4.80
2018-09-12T07:22:43.858Z,5.40
2018-09-12T07:25:15.410Z,5.53
2018-09-12T07:27:45.135Z,5.50
2018-09-12T07:30:14.502Z,4.87
2018-09-12T07:32:42.413Z,5.10
2018-09-12T07:35:10.065Z,5.47
2018-09-12T07:37:38.512Z,5.30
2018-09-12T07:40:05.905Z,5.83
2018-09-12T07:42:47.691Z,4.90
2018-09-12T07:45:18.937Z,5.93
2018-09-12T07:47:47.133Z,5.63
2018-09-12T07:50:14.539Z,5.50
2018-09-12T07:52:41.884Z,5.30
2018-09-12T07:55:09.266Z,5.57
2018-09-12T07:57:36.618Z,4.70
2018-09-12T08:00:04.170Z,4.93
2018-09-12T08:02:31.947Z,5.80
2018-09-12T08:04:59.969Z,5.67
2018-09-12T08:07:27.378Z,6.07
2018-09-12T08:10:00.010Z,5.30
2018-09-12T08:12:27.511Z,5.60
2018-09-12T08:14:54.876Z,5.70
2018-09-12T08:17:23.434Z,5.47
2018-09-12T08:19:53.575Z,4.97
2018-09-12T08:22:22.141Z,5.30
2018-09-12T08:24:49.447Z,4.90
2018-09-12T08:27:16.824Z,4.20
2018-09-12T08:29:44.210Z,4.77
2018-09-12T08:32:11.587Z,5.17
2018-09-12T08:34:38.863Z,5.20
2018-09-12T08:37:06.314Z,5.10
2018-09-12T08:39:33.658Z,5.33
2018-09-12T08:42:01.101Z,5.00
2018-09-12T08:44:28.780Z,5.40
2018-09-12T08:46:56.236Z,5.53
2018-09-12T08:49:23.699Z,5.40
2018-09-12T08:51:51.060Z,5.00
2018-09-12T08:54:18.550Z,5.00
2018-09-12T08:56:45.993Z,5.70
2018-09-12T08:59:13.367Z,5.40
2018-09-12T09:01:40.808Z,5.50
2018-09-12T09:04:08.150Z,4.93
2018-09-12T09:06:35.558Z,5.27
2018-09-12T09:09:02.986Z,4.93
2018-09-12T09:11:30.334Z,4.97
2018-09-12T09:13:58.289Z,4.80
2018-09-12T09:16:25.569Z,4.83
2018-09-12T09:18:52.955Z,4.57
2018-09-12T09:21:20.288Z,4.53
2018-09-12T09:23:47.734Z,4.70
2018-09-12T09:26:15.186Z,4.70
2018-09-12T09:28:42.608Z,4.10
2018-09-12T09:31:10.092Z,4.27
2018-09-12T09:33:37.556Z,4.10
2018-09-12T09:36:05.094Z,4.43
2018-09-12T09:38:32.418Z,4.60
2018-09-12T09:40:59.721Z,3.83
2018-09-12T09:43:27.054Z,4.27
2018-09-12T09:45:54.375Z,4.67
2018-09-12T09:48:21.751Z,4.10
2018-09-12T09:50:50.103Z,4.10
2018-09-12T09:53:17.424Z,4.10
2018-09-12T09:55:44.711Z,4.57
2018-09-12T09:58:12.384Z,4.33
2018-09-12T10:00:45.115Z,4.60
2018-09-12T10:03:17.782Z,4.10
2018-09-12T10:05:50.552Z,4.33
2018-09-12T10:08:23.342Z,4.43
2018-09-12T10:10:50.703Z,4.20
2018-09-12T10:13:18.276Z,4.00
2018-09-12T10:15:45.634Z,4.40
2018-09-12T10:18:13.077Z,4.07
2018-09-12T10:20:40.428Z,4.13
2018-09-12T10:23:07.768Z,5.93
2018-09-12T10:25:35.153Z,3.93
2018-09-12T10:28:02.600Z,3.80
2018-09-12T10:30:29.952Z,4.20
2018-09-12T10:32:57.251Z,3.40
2018-09-12T10:35:24.615Z,3.67
2018-09-12T10:37:51.937Z,4.80
2018-09-12T10:40:19.249Z,4.30
2018-09-12T10:42:46.573Z,4.20
2018-09-12T10:45:14.175Z,3.40
2018-09-12T10:47:41.502Z,3.87
2018-09-12T10:50:09.341Z,3.35
2018-09-12T10:52:37.234Z,3.17
2018-09-12T10:55:04.619Z,3.37
2018-09-12T10:57:31.947Z,3.33
2018-09-12T10:59:59.320Z,3.50
2018-09-12T11:02:26.696Z,3.93
2018-09-12T11:04:54.122Z,3.40
2018-09-12T11:07:21.461Z,3.60
2018-09-12T11:09:48.866Z,3.07
2018-09-12T11:12:16.113Z,3.17
2018-09-12T11:14:43.478Z,3.70
2018-09-12T11:17:10.883Z,3.60
2018-09-12T11:19:39.521Z,3.50
2018-09-12T11:22:06.847Z,3.22
2018-09-12T11:24:34.415Z,3.15
2018-09-12T11:27:02.635Z,3.55
2018-09-12T11:29:35.230Z,3.05
2018-09-12T11:32:02.794Z,3.10
2018-09-12T11:34:30.204Z,3.40
2018-09-12T11:36:57.609Z,3.30
2018-09-12T11:39:25.006Z,4.20
2018-09-12T11:41:52.484Z,3.30
2018-09-12T11:44:20.847Z,3.20
2018-09-12T11:46:49.752Z,4.00
2018-09-12T11:49:19.145Z,4.57
2018-09-12T11:51:46.609Z,3.80
2018-09-12T11:54:13.933Z,4.33
2018-09-12T11:56:41.409Z,4.27
2018-09-12T11:59:08.842Z,3.57
2018-09-12T12:01:36.211Z,3.40
2018-09-12T12:04:04.957Z,4.40
2018-09-12T12:06:32.769Z,4.10
2018-09-12T12:09:06.282Z,3.60
2018-09-12T12:11:33.721Z,4.10
2018-09-12T12:14:01.557Z,4.47
2018-09-12T12:16:38.225Z,3.97
2018-09-12T12:19:05.750Z,4.47
2018-09-12T12:21:33.402Z,4.60
2018-09-12T12:24:01.105Z,4.67
2018-09-12T12:26:31.288Z,3.90
2018-09-12T12:28:59.062Z,4.50
2018-09-12T12:31:26.407Z,4.00
2018-09-12T12:33:53.838Z,3.73
2018-09-12T12:39:06.727Z,4.20
2018-09-12T12:41:34.051Z,4.00
2018-09-12T12:44:01.991Z,4.27
2018-09-12T12:46:29.511Z,3.87
2018-09-12T12:49:07.700Z,4.33
2018-09-12T12:51:36.208Z,4.77
2018-09-12T12:54:03.635Z,4.90
2018-09-12T12:56:31.132Z,4.53
2018-09-12T12:58:58.597Z,4.63
2018-09-12T13:01:25.969Z,4.00
2018-09-12T13:03:53.325Z,4.40
2018-09-12T13:06:20.639Z,4.40
2018-09-12T13:08:47.991Z,4.37
2018-09-12T13:11:20.338Z,4.97
2018-09-12T13:13:49.749Z,4.30
2018-09-12T13:16:17.111Z,4.47
2018-09-12T13:18:44.512Z,4.00
2018-09-12T13:21:11.887Z,4.50
2018-09-12T13:23:39.341Z,4.20
2018-09-12T13:26:06.888Z,4.50
2018-09-12T13:28:34.808Z,4.03
2018-09-12T13:31:02.647Z,4.33
2018-09-12T13:33:30.067Z,4.00
2018-09-12T13:35:57.490Z,4.63
2018-09-12T13:38:24.892Z,3.57
2018-09-12T13:40:52.662Z,4.10
2018-09-12T13:43:20.038Z,3.60
2018-09-12T13:45:47.435Z,4.27
2018-09-12T13:48:18.173Z,4.50
2018-09-12T13:50:45.530Z,3.73
2018-09-12T13:53:12.890Z,4.10
2018-09-12T13:55:41.306Z,4.60
2018-09-12T13:58:08.703Z,4.50
2018-09-12T14:00:36.080Z,4.80
2018-09-12T14:03:04.171Z,4.17
2018-09-12T14:05:32.103Z,4.27
2018-09-12T14:07:59.621Z,4.63
2018-09-12T14:10:27.148Z,4.17
2018-09-12T14:12:54.610Z,4.20
2018-09-12T14:15:22.081Z,4.40
2018-09-12T14:17:49.465Z,4.10
2018-09-12T14:20:17.003Z,3.70
2018-09-12T14:22:45.447Z,3.93
2018-09-12T14:25:12.868Z,3.67
2018-09-12T14:27:40.219Z,4.17
2018-09-12T14:30:07.614Z,4.23
2018-09-12T14:35:11.707Z,4.50
2018-09-12T14:37:39.068Z,3.90
2018-09-12T14:40:07.082Z,4.43
2018-09-12T14:42:34.487Z,4.60
2018-09-12T14:45:02.698Z,4.40
2018-09-12T14:47:32.738Z,3.50
2018-09-12T14:50:00.302Z,4.30
2018-09-12T14:52:27.626Z,3.93
2018-09-12T14:54:55.037Z,4.67
2018-09-12T14:57:23.346Z,3.77
2018-09-12T14:59:50.702Z,4.57
2018-09-12T15:02:18.298Z,4.00
2018-09-12T15:04:45.807Z,4.23
2018-09-12T15:07:13.109Z,3.80
2018-09-12T15:09:40.849Z,3.60
2018-09-12T15:12:08.217Z,4.10
2018-09-12T15:14:35.652Z,4.20
2018-09-12T15:17:03.387Z,4.33
2018-09-12T15:19:31.319Z,4.07
2018-09-12T15:21:59.323Z,3.97
2018-09-12T15:24:26.698Z,4.47
2018-09-12T15:26:55.878Z,4.43
2018-09-12T15:29:23.199Z,4.20
2018-09-12T15:31:50.603Z,3.87
2018-09-12T15:34:17.951Z,4.57
2018-09-12T15:36:45.285Z,4.40
2018-09-12T15:39:12.825Z,4.43
2018-09-12T15:41:40.549Z,4.03
2018-09-12T15:44:07.926Z,3.47
2018-09-12T15:46:35.330Z,3.70
2018-09-12T15:49:03.321Z,4.00
2018-09-12T15:51:30.664Z,3.93
2018-09-12T15:53:58.024Z,4.10
2018-09-12T15:56:25.478Z,4.17
2018-09-12T15:58:52.948Z,4.13
2018-09-12T16:01:20.316Z,3.10
2018-09-12T16:03:48.013Z,4.00
2018-09-12T16:06:15.547Z,4.10
2018-09-12T16:08:43.015Z,3.77
2018-09-12T16:11:10.377Z,4.00
2018-09-12T16:13:37.825Z,4.00
2018-09-12T16:16:05.316Z,4.10
2018-09-12T16:18:32.671Z,4.00
2018-09-12T16:21:04.063Z,3.90
2018-09-12T16:23:31.414Z,3.70
2018-09-12T16:25:58.864Z,4.27
2018-09-12T16:28:26.364Z,4.33
2018-09-12T16:30:53.811Z,4.27
2018-09-12T16:33:21.124Z,4.20
2018-09-12T16:35:48.530Z,4.10
2018-09-12T16:38:16.632Z,4.70
2018-09-12T16:40:44.056Z,4.90
2018-09-12T16:43:16.843Z,4.70
2018-09-12T16:45:44.182Z,4.30
2018-09-12T16:48:13.013Z,4.53
2018-09-12T16:50:40.532Z,4.50
2018-09-12T16:53:07.982Z,4.23
2018-09-12T16:55:41.196Z,4.40
2018-09-12T16:58:08.575Z,4.60
2018-09-12T17:00:35.989Z,3.83
2018-09-12T17:03:03.380Z,4.40
2018-09-12T17:05:30.975Z,4.47
2018-09-12T17:07:58.501Z,4.90
2018-09-12T17:10:31.256Z,4.33
2018-09-12T17:12:59.370Z,4.53
2018-09-12T17:15:26.792Z,4.50
2018-09-12T17:17:54.153Z,4.87
2018-09-12T17:20:21.919Z,4.83
2018-09-12T17:22:49.298Z,4.53
2018-09-12T17:25:16.879Z,4.90
2018-09-12T17:27:45.311Z,4.83
2018-09-12T17:30:13.028Z,4.60
2018-09-12T17:32:40.497Z,4.73
2018-09-12T17:35:08.533Z,4.73
2018-09-12T17:37:36.224Z,5.27
2018-09-12T17:40:03.741Z,5.23
2018-09-12T17:42:31.405Z,5.40
2018-09-12T17:44:58.940Z,5.70
2018-09-12T17:47:26.937Z,4.97
2018-09-12T17:49:54.419Z,5.00
2018-09-12T17:52:22.228Z,5.03
2018-09-12T17:54:50.233Z,4.83
2018-09-12T17:57:17.583Z,5.30
2018-09-12T17:59:45.166Z,4.60
2018-09-12T18:02:12.712Z,5.40
2018-09-12T18:04:40.091Z,5.33
2018-09-12T18:07:07.497Z,5.40
2018-09-12T18:09:35.045Z,5.47
2018-09-12T18:12:03.093Z,5.30
2018-09-12T18:14:30.761Z,5.53
2018-09-12T18:16:58.287Z,5.67
2018-09-12T18:19:25.662Z,5.50
2018-09-12T18:21:53.076Z,5.30
2018-09-12T18:24:20.506Z,5.63
2018-09-12T18:26:48.010Z,5.87
2018-09-12T18:29:15.757Z,5.20
2018-09-12T18:31:43.172Z,5.07
2018-09-12T18:34:10.648Z,5.37
2018-09-12T18:36:38.791Z,5.30
2018-09-12T18:39:07.441Z,5.10
2018-09-12T18:41:35.713Z,5.67
2018-09-12T18:44:03.306Z,5.77
2018-09-12T18:46:30.875Z,5.33
2018-09-12T18:48:58.364Z,5.70
2018-09-12T18:51:25.748Z,5.33
2018-09-12T18:53:53.336Z,5.83
2018-09-12T18:56:20.786Z,4.80
2018-09-12T18:58:48.487Z,5.20
2018-09-12T19:01:15.925Z,5.80
2018-09-12T19:03:43.562Z,5.30
2018-09-12T19:06:11.084Z,5.50
2018-09-12T19:08:38.476Z,5.40
2018-09-12T19:11:05.854Z,5.80
2018-09-12T19:13:33.304Z,6.80
2018-09-12T19:16:00.947Z,7.47
2018-09-12T19:18:29.163Z,7.50
2018-09-12T19:20:56.674Z,6.97
2018-09-12T19:23:24.144Z,6.20
2018-09-12T19:25:51.569Z,7.30
2018-09-12T19:28:18.907Z,7.70
2018-09-12T19:30:46.796Z,7.83
2018-09-12T19:33:14.541Z,7.20
2018-09-12T19:35:42.051Z,7.20
2018-09-12T19:38:09.632Z,6.67
2018-09-12T19:40:37.106Z,6.10
2018-09-12T19:43:06.617Z,6.53
2018-09-12T19:45:34.702Z,6.50
2018-09-12T19:48:02.162Z,6.80
2018-09-12T19:50:29.538Z,6.30
2018-09-12T19:52:56.936Z,7.20
2018-09-12T19:55:25.034Z,7.20
2018-09-12T19:57:52.622Z,6.40
2018-09-12T20:00:20.118Z,5.93
2018-09-12T20:02:47.601Z,7.07
2018-09-12T20:05:15.432Z,6.43
2018-09-12T20:07:42.847Z,6.90
2018-09-12T20:10:10.396Z,6.33
2018-09-12T20:12:37.781Z,6.50
2018-09-12T20:15:05.202Z,8.20
2018-09-12T20:17:32.938Z,7.40
2018-09-12T20:20:00.478Z,6.63
2018-09-12T20:22:27.877Z,6.50
2018-09-12T20:24:55.306Z,6.80
2018-09-12T20:27:22.625Z,6.50
2018-09-12T20:29:50.039Z,7.00
2018-09-12T20:32:17.381Z,6.90
2018-09-12T20:34:45.472Z,6.83
2018-09-12T20:37:14.155Z,7.30
2018-09-12T20:39:41.644Z,6.70
2018-09-12T20:42:08.974Z,6.73
2018-09-12T20:44:36.586Z,6.67
2018-09-12T20:47:04.053Z,6.87
2018-09-12T20:49:32.351Z,6.50
2018-09-12T20:51:59.720Z,6.80
2018-09-12T20:54:28.519Z,6.27
2018-09-12T20:56:55.977Z,7.67
2018-09-12T20:59:23.408Z,6.63
2018-09-12T21:01:50.914Z,6.73
2018-09-12T21:04:18.265Z,7.07
2018-09-12T21:06:45.789Z,6.50
2018-09-12T21:09:14.243Z,6.60
2018-09-12T21:11:41.697Z,7.27
2018-09-12T21:14:09.908Z,6.93
2018-09-12T21:16:37.401Z,6.57
2018-09-12T21:19:05.117Z,6.23
2018-09-12T21:21:32.888Z,6.33
2018-09-12T21:24:00.312Z,7.03
2018-09-12T21:26:28.436Z,7.30
2018-09-12T21:28:56.595Z,6.10
2018-09-12T21:31:24.006Z,7.00
2018-09-12T21:33:51.846Z,5.93
2018-09-12T21:36:19.233Z,6.83
2018-09-12T21:38:47.506Z,7.20
2018-09-12T21:41:15.065Z,7.23
2018-09-12T21:43:43.396Z,6.80
2018-09-12T21:46:12.970Z,7.10
2018-09-12T21:48:40.404Z,7.10
2018-09-12T21:51:07.767Z,7.20
2018-09-12T21:53:35.130Z,7.20
2018-09-12T21:56:02.696Z,6.03
2018-09-12T21:58:30.055Z,6.47
2018-09-12T22:00:57.424Z,7.23
2018-09-12T22:03:25.775Z,7.00
2018-09-12T22:05:53.122Z,6.73
2018-09-12T22:08:20.481Z,4.93
2018-09-12T22:10:48.003Z,5.37
2018-09-12T22:13:15.446Z,4.90
2018-09-12T22:15:43.933Z,4.33
2018-09-12T22:18:11.295Z,4.30
2018-09-12T22:20:38.612Z,3.83
2018-09-12T22:23:07.034Z,3.77
2018-09-12T22:25:34.913Z,4.13
2018-09-12T22:28:02.273Z,3.73
2018-09-12T22:30:29.968Z,3.43
2018-09-12T22:32:57.339Z,4.43
2018-09-12T22:35:24.695Z,4.13
2018-09-12T22:37:52.050Z,4.20
2018-09-12T22:40:19.413Z,3.90
2018-09-12T22:42:46.823Z,3.90
2018-09-12T22:45:14.178Z,3.40
2018-09-12T22:47:41.523Z,4.13
2018-09-12T22:50:08.907Z,4.20
2018-09-12T22:52:36.363Z,4.33
2018-09-12T22:55:04.154Z,4.10
2018-09-12T22:57:31.923Z,4.70
2018-09-12T22:59:59.536Z,4.00
2018-09-12T23:02:26.818Z,4.20
2018-09-12T23:04:54.188Z,4.57
2018-09-12T23:07:21.536Z,4.40
2018-09-12T23:09:49.646Z,4.50
2018-09-12T23:12:17.009Z,4.60
2018-09-12T23:14:44.329Z,4.20
2018-09-12T23:17:11.686Z,4.27
2018-09-12T23:19:40.064Z,4.47
2018-09-12T23:22:07.406Z,4.40
2018-09-12T23:24:34.729Z,4.27
2018-09-12T23:27:02.044Z,4.57
2018-09-12T23:29:29.344Z,4.60
2018-09-12T23:31:56.823Z,4.27
2018-09-12T23:34:24.197Z,4.17
2018-09-12T23:36:51.659Z,4.07
2018-09-12T23:39:19.022Z,4.60
2018-09-12T23:41:46.396Z,5.40
2018-09-12T23:44:13.716Z,5.07
2018-09-12T23:46:41.041Z,5.33
2018-09-12T23:49:08.837Z,5.27
2018-09-12T23:51:36.226Z,4.80
2018-09-12T23:54:03.614Z,4.87
2018-09-12T23:56:30.989Z,5.47
2018-09-12T23:58:58.346Z,6.57
